createdAt,value
2023-05-24T00:00:25.314Z,19.03
2023-05-24T00:02:52.600Z,19.03
2023-05-24T00:05:19.873Z,19.02
2023-05-24T00:07:47.542Z,19.00
2023-05-24T00:10:15.092Z,19.01
2023-05-24T00:12:42.337Z,19.02
2023-05-24T00:15:09.796Z,19.02
2023-05-24T00:17:41.281Z,19.00
2023-05-24T00:20:11.343Z,19.01
2023-05-24T00:22:38.883Z,19.00
2023-05-24T00:25:06.999Z,18.98
2023-05-24T00:27:34.645Z,18.96
2023-05-24T00:30:02.213Z,18.94
2023-05-24T00:32:30.696Z,18.94
2023-05-24T00:34:57.895Z,18.92
2023-05-24T00:37:26.472Z,18.93
2023-05-24T00:39:53.907Z,18.93
2023-05-24T00:42:21.290Z,18.90
2023-05-24T00:44:48.715Z,18.86
2023-05-24T00:47:16.450Z,18.82
2023-05-24T00:49:43.647Z,18.78
2023-05-24T00:52:10.796Z,18.78
2023-05-24T00:54:40.742Z,18.79
2023-05-24T00:57:08.048Z,18.82
2023-05-24T00:59:35.478Z,18.81
2023-05-24T01:02:05.315Z,18.80
2023-05-24T01:04:33.347Z,18.78
2023-05-24T01:07:21.610Z,18.75
2023-05-24T01:10:10.748Z,18.70
2023-05-24T01:13:04.596Z,18.67
2023-05-24T01:15:43.766Z,18.66
2023-05-24T01:18:17.743Z,18.67
2023-05-24T01:20:45.529Z,18.67
2023-05-24T01:23:32.335Z,18.65
2023-05-24T01:26:09.412Z,18.63
2023-05-24T01:28:36.932Z,18.64
2023-05-24T01:31:04.512Z,18.66
2023-05-24T01:33:32.738Z,18.67
2023-05-24T01:36:00.018Z,18.67
2023-05-24T01:38:27.362Z,18.67
2023-05-24T01:40:59.466Z,18.66
2023-05-24T01:43:40.416Z,18.64
2023-05-24T01:46:23.117Z,18.61
2023-05-24T01:49:21.461Z,18.58
2023-05-24T01:51:58.708Z,18.59
2023-05-24T01:54:26.764Z,18.58
2023-05-24T01:56:55.496Z,18.59
2023-05-24T01:59:23.014Z,18.59
2023-05-24T02:01:50.431Z,18.57
2023-05-24T02:04:18.541Z,18.57
2023-05-24T02:06:46.168Z,18.55
2023-05-24T02:09:13.707Z,18.55
2023-05-24T02:11:40.957Z,18.54
2023-05-24T02:14:08.174Z,18.53
2023-05-24T02:16:42.649Z,18.51
2023-05-24T02:19:10.373Z,18.50
2023-05-24T02:21:38.591Z,18.51
2023-05-24T02:24:07.187Z,18.51
2023-05-24T02:26:34.427Z,18.50
2023-05-24T02:29:01.878Z,18.50
2023-05-24T02:31:29.752Z,18.51
2023-05-24T02:33:57.874Z,18.48
2023-05-24T02:36:25.043Z,18.46
2023-05-24T02:38:52.302Z,18.44
2023-05-24T02:41:19.803Z,18.47
2023-05-24T02:43:47.604Z,18.49
2023-05-24T02:46:15.188Z,18.52
2023-05-24T02:48:42.689Z,18.53
2023-05-24T02:51:10.288Z,18.56
2023-05-24T02:53:38.032Z,18.58
2023-05-24T02:56:05.253Z,18.58
2023-05-24T02:58:33.541Z,18.58
2023-05-24T03:01:01.764Z,18.58
2023-05-24T03:03:30.907Z,18.55
2023-05-24T03:05:58.597Z,18.55
2023-05-24T03:08:25.761Z,18.56
2023-05-24T03:10:53.937Z,18.53
2023-05-24T03:13:22.639Z,18.48
2023-05-24T03:15:50.074Z,18.51
2023-05-24T03:18:17.421Z,18.54
2023-05-24T03:20:45.743Z,18.55
2023-05-24T03:23:15.070Z,18.55
2023-05-24T03:25:42.814Z,18.56
2023-05-24T03:28:10.607Z,18.57
2023-05-24T03:30:37.894Z,18.56
2023-05-24T03:33:05.582Z,18.54
2023-05-24T03:35:33.509Z,18.46
2023-05-24T03:38:00.770Z,18.45
2023-05-24T03:40:32.572Z,18.48
2023-05-24T03:43:07.298Z,18.49
2023-05-24T03:45:43.828Z,18.55
2023-05-24T03:48:11.382Z,18.59
2023-05-24T03:50:38.923Z,18.65
2023-05-24T03:53:06.266Z,18.63
2023-05-24T03:55:33.420Z,18.63
2023-05-24T03:58:00.585Z,18.67
2023-05-24T04:00:28.809Z,18.69
2023-05-24T04:02:56.322Z,18.72
2023-05-24T04:05:29.741Z,18.70
2023-05-24T04:07:56.983Z,18.72
2023-05-24T04:10:24.298Z,18.72
2023-05-24T04:12:51.852Z,18.73
2023-05-24T04:15:18.975Z,18.71
2023-05-24T04:17:46.737Z,18.74
2023-05-24T04:20:14.391Z,18.77
2023-05-24T04:22:42.148Z,18.83
2023-05-24T04:25:10.222Z,18.88
2023-05-24T04:27:37.726Z,18.94
2023-05-24T04:30:05.773Z,19.02
2023-05-24T04:32:33.891Z,19.04
2023-05-24T04:35:02.854Z,19.11
2023-05-24T04:37:31.837Z,19.18
2023-05-24T04:39:59.115Z,19.24
2023-05-24T04:42:27.489Z,19.27
2023-05-24T04:44:54.606Z,19.29
2023-05-24T04:47:21.839Z,19.33
2023-05-24T04:49:49.743Z,19.35
2023-05-24T04:52:17.484Z,19.35
2023-05-24T04:54:44.728Z,19.39
2023-05-24T04:57:11.912Z,19.44
2023-05-24T04:59:39.262Z,19.46
2023-05-24T05:02:06.732Z,19.46
2023-05-24T05:04:33.944Z,19.50
2023-05-24T05:07:01.119Z,19.49
2023-05-24T05:09:28.459Z,19.54
2023-05-24T05:11:55.751Z,19.60
2023-05-24T05:14:23.316Z,19.66
2023-05-24T05:16:50.705Z,19.67
2023-05-24T05:19:18.048Z,19.75
2023-05-24T05:21:45.589Z,19.77
2023-05-24T05:24:12.808Z,19.80
2023-05-24T05:26:41.809Z,19.83
2023-05-24T05:29:09.141Z,19.88
2023-05-24T05:31:37.087Z,19.94
2023-05-24T05:34:04.315Z,20.01
2023-05-24T05:36:32.424Z,20.02
2023-05-24T05:38:59.758Z,20.03
2023-05-24T05:41:26.975Z,20.09
2023-05-24T05:43:54.093Z,20.14
2023-05-24T05:46:22.337Z,20.18
2023-05-24T05:48:50.705Z,20.23
2023-05-24T05:51:17.843Z,20.27
2023-05-24T05:53:45.053Z,20.31
2023-05-24T05:56:12.397Z,20.35
2023-05-24T05:58:39.628Z,20.39
2023-05-24T06:01:06.916Z,20.44
2023-05-24T06:03:34.426Z,20.43
2023-05-24T06:06:01.871Z,20.48
2023-05-24T06:08:34.941Z,20.51
2023-05-24T06:11:02.484Z,20.51
2023-05-24T06:13:31.383Z,20.53
2023-05-24T06:15:59.101Z,20.57
2023-05-24T06:18:27.753Z,20.60
2023-05-24T06:20:55.166Z,20.68
2023-05-24T06:23:23.492Z,20.74
2023-05-24T06:25:50.863Z,20.82
2023-05-24T06:28:18.184Z,20.87
2023-05-24T06:30:45.905Z,20.93
2023-05-24T06:33:13.391Z,20.97
2023-05-24T06:35:40.813Z,21.00
2023-05-24T06:38:09.664Z,21.04
2023-05-24T06:40:37.134Z,21.10
2023-05-24T06:43:04.907Z,21.16
2023-05-24T06:45:34.348Z,21.21
2023-05-24T06:48:01.775Z,21.29
2023-05-24T06:50:29.136Z,21.32
2023-05-24T06:52:56.606Z,21.33
2023-05-24T06:55:23.784Z,21.35
2023-05-24T06:57:51.221Z,21.38
2023-05-24T07:00:18.875Z,21.39
2023-05-24T07:02:46.170Z,21.41
2023-05-24T07:05:13.627Z,21.42
2023-05-24T07:07:42.502Z,21.42
2023-05-24T07:10:10.896Z,21.42
2023-05-24T07:12:38.410Z,21.44
2023-05-24T07:15:07.236Z,21.41
2023-05-24T07:17:34.975Z,21.40
2023-05-24T07:20:02.604Z,21.37
2023-05-24T07:22:31.705Z,21.38
2023-05-24T07:24:59.049Z,21.39
2023-05-24T07:27:26.482Z,21.42
2023-05-24T07:29:54.258Z,21.45
2023-05-24T07:32:21.696Z,21.48
2023-05-24T07:34:49.022Z,21.51
2023-05-24T07:37:17.626Z,21.58
2023-05-24T07:39:45.002Z,21.65
2023-05-24T07:42:12.319Z,21.76
2023-05-24T07:44:40.046Z,21.87
2023-05-24T07:47:07.260Z,21.90
2023-05-24T07:49:34.630Z,21.92
2023-05-24T07:52:04.079Z,21.99
2023-05-24T07:54:32.010Z,22.08
2023-05-24T07:56:59.686Z,22.20
2023-05-24T07:59:27.263Z,22.32
2023-05-24T08:01:54.473Z,22.40
2023-05-24T08:04:22.011Z,22.42
2023-05-24T08:06:49.386Z,22.48
2023-05-24T08:09:16.752Z,22.59
2023-05-24T08:11:44.277Z,22.71
2023-05-24T08:14:11.863Z,22.80
2023-05-24T08:16:39.551Z,22.89
2023-05-24T08:19:07.263Z,22.98
2023-05-24T08:21:34.750Z,23.03
2023-05-24T08:24:02.042Z,23.06
2023-05-24T08:26:29.418Z,23.10
2023-05-24T08:28:56.726Z,23.14
2023-05-24T08:31:24.579Z,23.22
2023-05-24T08:33:52.910Z,23.22
2023-05-24T08:36:20.144Z,23.22
2023-05-24T08:38:47.666Z,23.23
2023-05-24T08:41:15.088Z,23.23
2023-05-24T08:43:42.417Z,23.25
2023-05-24T08:46:09.595Z,23.29
2023-05-24T08:48:46.113Z,23.31
2023-05-24T08:51:17.019Z,23.43
2023-05-24T08:53:48.719Z,23.58
2023-05-24T08:56:17.867Z,23.72
2023-05-24T08:58:47.377Z,23.85
2023-05-24T09:01:15.442Z,23.99
2023-05-24T09:03:43.816Z,24.14
2023-05-24T09:06:12.259Z,24.24
2023-05-24T09:08:42.396Z,24.37
2023-05-24T09:11:11.651Z,24.46
2023-05-24T09:13:39.053Z,24.52
2023-05-24T09:16:06.567Z,24.60
2023-05-24T09:18:34.059Z,24.63
2023-05-24T09:21:01.422Z,24.63
2023-05-24T09:23:29.025Z,24.60
2023-05-24T09:25:57.064Z,24.67
2023-05-24T09:28:25.179Z,24.71
2023-05-24T09:31:00.327Z,24.71
2023-05-24T09:33:32.736Z,24.70
2023-05-24T09:36:01.448Z,24.70
2023-05-24T09:38:29.824Z,24.69
2023-05-24T09:41:07.563Z,24.67
2023-05-24T09:43:36.353Z,24.55
2023-05-24T09:46:04.792Z,24.49
2023-05-24T09:48:32.459Z,24.47
2023-05-24T09:51:04.454Z,24.43
2023-05-24T09:53:34.008Z,24.40
2023-05-24T09:56:04.035Z,24.42
2023-05-24T09:58:35.013Z,24.37
2023-05-24T10:01:11.087Z,24.32
2023-05-24T10:03:38.657Z,24.18
2023-05-24T10:06:08.424Z,24.13
2023-05-24T10:08:36.797Z,24.14
2023-05-24T10:11:04.967Z,24.15
2023-05-24T10:13:36.616Z,24.16
2023-05-24T10:16:04.485Z,24.17
2023-05-24T10:18:32.052Z,24.21
2023-05-24T10:21:01.030Z,24.19
2023-05-24T10:23:32.767Z,24.15
2023-05-24T10:26:04.136Z,24.08
2023-05-24T10:28:31.392Z,23.89
2023-05-24T10:31:04.941Z,23.61
2023-05-24T10:33:32.877Z,23.35
2023-05-24T10:36:00.126Z,23.15
2023-05-24T10:38:27.592Z,22.98
2023-05-24T10:40:54.951Z,22.83
2023-05-24T10:43:22.597Z,22.66
2023-05-24T10:45:50.774Z,22.53
2023-05-24T10:48:29.288Z,22.42
2023-05-24T10:50:57.524Z,22.32
2023-05-24T10:53:27.402Z,22.26
2023-05-24T10:56:04.183Z,22.17
2023-05-24T10:58:35.488Z,22.14
2023-05-24T11:01:03.569Z,22.09
2023-05-24T11:03:34.880Z,22.08
2023-05-24T11:06:03.194Z,22.04
2023-05-24T11:08:35.671Z,22.02
2023-05-24T11:11:24.416Z,22.00
2023-05-24T11:13:56.916Z,21.99
2023-05-24T11:16:38.812Z,21.97
2023-05-24T11:19:20.660Z,21.98
2023-05-24T11:21:49.238Z,22.01
2023-05-24T11:24:18.697Z,22.05
2023-05-24T11:26:46.470Z,22.06
2023-05-24T11:29:17.781Z,22.09
2023-05-24T11:31:50.807Z,22.16
2023-05-24T11:34:21.712Z,22.18
2023-05-24T11:36:49.105Z,22.20
2023-05-24T11:39:16.497Z,22.23
2023-05-24T11:41:44.125Z,22.29
2023-05-24T11:44:12.395Z,22.36
2023-05-24T11:46:39.959Z,22.40
2023-05-24T11:49:07.658Z,22.46
2023-05-24T11:51:35.894Z,22.50
2023-05-24T11:54:03.196Z,22.54
2023-05-24T11:56:33.211Z,22.57
2023-05-24T11:59:38.204Z,22.56
2023-05-24T12:02:06.236Z,22.62
2023-05-24T12:04:34.809Z,22.65
2023-05-24T12:07:02.380Z,22.68
2023-05-24T12:09:29.851Z,22.69
2023-05-24T12:11:58.686Z,22.70
2023-05-24T12:14:33.167Z,22.70
2023-05-24T12:17:01.394Z,22.68
2023-05-24T12:19:36.036Z,22.69
2023-05-24T12:22:05.909Z,22.72
2023-05-24T12:24:33.515Z,22.78
2023-05-24T12:27:02.272Z,22.85
2023-05-24T12:29:36.841Z,22.92
2023-05-24T12:32:04.491Z,22.96
2023-05-24T12:34:32.238Z,22.98
2023-05-24T12:36:59.927Z,23.03
2023-05-24T12:39:34.253Z,23.05
2023-05-24T12:42:02.018Z,22.92
2023-05-24T12:44:31.474Z,23.01
2023-05-24T12:46:59.159Z,23.12
2023-05-24T12:49:27.043Z,23.18
2023-05-24T12:51:55.549Z,23.28
2023-05-24T12:54:24.145Z,23.36
2023-05-24T12:56:54.154Z,23.43
2023-05-24T12:59:22.992Z,23.56
2023-05-24T13:01:53.508Z,23.66
2023-05-24T13:04:22.204Z,23.68
2023-05-24T13:06:49.715Z,23.75
2023-05-24T13:09:21.835Z,23.82
2023-05-24T13:11:49.711Z,23.87
2023-05-24T13:14:18.441Z,23.99
2023-05-24T13:16:46.143Z,24.06
2023-05-24T13:19:13.798Z,24.09
2023-05-24T13:21:41.031Z,24.13
2023-05-24T13:24:08.761Z,24.09
2023-05-24T13:26:38.196Z,24.05
2023-05-24T13:31:40.865Z,23.98
2023-05-24T13:34:09.293Z,23.95
2023-05-24T13:36:38.396Z,23.94
2023-05-24T13:41:37.910Z,23.94
2023-05-24T13:44:05.336Z,23.92
2023-05-24T13:46:32.976Z,23.91
2023-05-24T13:49:00.339Z,23.90
2023-05-24T13:51:30.784Z,23.91
2023-05-24T13:53:58.096Z,23.89
2023-05-24T13:56:26.064Z,23.91
2023-05-24T13:58:53.686Z,23.95
2023-05-24T14:01:21.212Z,23.95
2023-05-24T14:03:48.465Z,23.94
2023-05-24T14:06:15.809Z,23.94
2023-05-24T14:08:43.046Z,23.94
2023-05-24T14:11:12.080Z,23.94
2023-05-24T14:16:09.778Z,23.87
2023-05-24T14:18:37.986Z,23.84
2023-05-24T14:21:05.274Z,23.79
2023-05-24T14:23:33.108Z,23.74
2023-05-24T14:26:01.016Z,23.71
2023-05-24T14:28:28.718Z,23.68
2023-05-24T14:30:56.313Z,23.67
2023-05-24T14:33:23.752Z,23.61
2023-05-24T14:35:51.796Z,23.60
2023-05-24T14:38:19.448Z,23.60
2023-05-24T14:40:48.371Z,23.63
2023-05-24T14:43:16.317Z,23.63
2023-05-24T14:45:43.910Z,23.62
2023-05-24T14:48:12.329Z,23.64
2023-05-24T14:50:40.434Z,23.70
2023-05-24T14:53:11.959Z,23.75
2023-05-24T14:55:41.775Z,23.79
2023-05-24T14:58:09.611Z,23.80
2023-05-24T15:00:37.320Z,23.80
2023-05-24T15:03:06.207Z,23.81
2023-05-24T15:05:35.059Z,23.84
2023-05-24T15:08:02.468Z,23.91
2023-05-24T15:10:29.912Z,23.98
2023-05-24T15:12:57.283Z,24.00
2023-05-24T15:15:24.874Z,24.02
2023-05-24T15:17:52.659Z,24.01
2023-05-24T15:20:20.176Z,23.98
2023-05-24T15:22:47.544Z,23.93
2023-05-24T15:25:14.945Z,23.91
2023-05-24T15:27:42.324Z,23.87
2023-05-24T15:30:09.800Z,23.80
2023-05-24T15:32:37.182Z,23.75
2023-05-24T15:35:04.698Z,23.73
2023-05-24T15:37:32.396Z,23.71
2023-05-24T15:39:59.727Z,23.68
2023-05-24T15:42:27.114Z,23.63
2023-05-24T15:44:54.689Z,23.61
2023-05-24T15:47:22.495Z,23.58
2023-05-24T15:49:50.150Z,23.55
2023-05-24T15:52:18.068Z,23.50
2023-05-24T15:54:46.125Z,23.48
2023-05-24T15:57:14.203Z,23.46
2023-05-24T15:59:41.474Z,23.47
2023-05-24T16:02:08.827Z,23.48
2023-05-24T16:04:36.875Z,23.46
2023-05-24T16:07:04.729Z,23.46
2023-05-24T16:09:32.217Z,23.43
2023-05-24T16:12:00.909Z,23.42
2023-05-24T16:14:29.985Z,23.44
2023-05-24T16:17:00.421Z,23.42
2023-05-24T16:19:30.511Z,23.44
2023-05-24T16:21:58.276Z,23.40
2023-05-24T16:24:25.822Z,23.41
2023-05-24T16:26:52.985Z,23.45
2023-05-24T16:29:21.296Z,23.48
2023-05-24T16:31:48.586Z,23.45
2023-05-24T16:34:16.546Z,23.45
2023-05-24T16:36:45.965Z,23.39
2023-05-24T16:39:13.572Z,23.31
2023-05-24T16:41:41.538Z,23.29
2023-05-24T16:44:08.844Z,23.23
2023-05-24T16:46:36.952Z,23.18
2023-05-24T16:49:04.317Z,23.11
2023-05-24T16:51:32.019Z,23.06
2023-05-24T16:53:59.467Z,23.03
2023-05-24T16:56:27.368Z,22.97
2023-05-24T16:58:54.537Z,22.91
2023-05-24T17:01:23.948Z,22.87
2023-05-24T17:03:51.171Z,22.84
2023-05-24T17:06:18.534Z,22.80
2023-05-24T17:08:45.681Z,22.75
2023-05-24T17:11:14.792Z,22.68
2023-05-24T17:13:41.973Z,22.64
2023-05-24T17:16:10.914Z,22.59
2023-05-24T17:18:38.476Z,22.53
2023-05-24T17:21:05.938Z,22.45
2023-05-24T17:23:34.059Z,22.40
2023-05-24T17:26:02.636Z,22.33
2023-05-24T17:28:30.580Z,22.23
2023-05-24T17:30:58.410Z,22.20
2023-05-24T17:33:28.297Z,22.13
2023-05-24T17:36:02.781Z,22.08
2023-05-24T17:38:33.249Z,22.02
2023-05-24T17:41:01.103Z,21.97
2023-05-24T17:43:29.239Z,21.92
2023-05-24T17:46:04.036Z,21.87
2023-05-24T17:48:38.913Z,21.82
2023-05-24T17:51:07.793Z,21.77
2023-05-24T17:53:36.394Z,21.74
2023-05-24T17:56:04.183Z,21.69
2023-05-24T17:58:36.396Z,21.66
2023-05-24T18:01:08.491Z,21.64
2023-05-24T18:03:37.515Z,21.61
2023-05-24T18:06:06.772Z,21.60
2023-05-24T18:08:35.484Z,21.57
2023-05-24T18:11:08.689Z,21.56
2023-05-24T18:13:42.985Z,21.54
2023-05-24T18:16:10.803Z,21.49
2023-05-24T18:18:38.741Z,21.48
2023-05-24T18:21:06.374Z,21.47
2023-05-24T18:23:37.606Z,21.44
2023-05-24T18:26:09.371Z,21.40
2023-05-24T18:28:37.671Z,21.36
2023-05-24T18:31:10.411Z,21.34
2023-05-24T18:33:38.506Z,21.31
2023-05-24T18:36:08.159Z,21.28
2023-05-24T18:38:36.157Z,21.27
2023-05-24T18:41:05.951Z,21.26
2023-05-24T18:43:33.837Z,21.25
2023-05-24T18:46:01.644Z,21.25
2023-05-24T18:48:29.237Z,21.25
2023-05-24T18:50:56.723Z,21.23
2023-05-24T18:53:24.056Z,21.24
2023-05-24T18:55:51.514Z,21.25
2023-05-24T18:58:18.885Z,21.25
2023-05-24T19:00:46.203Z,21.24
2023-05-24T19:03:13.781Z,21.23
2023-05-24T19:05:43.888Z,21.23
2023-05-24T19:08:12.086Z,21.22
2023-05-24T19:10:39.270Z,21.20
2023-05-24T19:13:06.862Z,21.18
2023-05-24T19:15:37.529Z,21.17
2023-05-24T19:18:06.080Z,21.10
2023-05-24T19:20:33.679Z,21.09
2023-05-24T19:23:01.506Z,21.05
2023-05-24T19:25:29.009Z,21.03
2023-05-24T19:27:59.778Z,20.98
2023-05-24T19:30:28.117Z,20.96
2023-05-24T19:32:55.595Z,20.92
2023-05-24T19:35:22.919Z,20.91
2023-05-24T19:37:50.813Z,20.89
2023-05-24T19:40:18.166Z,20.87
2023-05-24T19:42:45.759Z,20.87
2023-05-24T19:45:13.556Z,20.83
2023-05-24T19:47:41.409Z,20.81
2023-05-24T19:50:09.189Z,20.79
2023-05-24T19:52:36.865Z,20.77
2023-05-24T19:55:04.583Z,20.75
2023-05-24T19:57:31.920Z,20.75
2023-05-24T19:59:59.070Z,20.75
2023-05-24T20:02:26.787Z,20.73
2023-05-24T20:04:54.610Z,20.72
2023-05-24T20:07:22.150Z,20.70
2023-05-24T20:09:49.977Z,20.70
2023-05-24T20:12:17.160Z,20.66
2023-05-24T20:14:44.907Z,20.61
2023-05-24T20:17:12.158Z,20.56
2023-05-24T20:19:39.367Z,20.50
2023-05-24T20:22:06.702Z,20.47
2023-05-24T20:24:34.099Z,20.43
2023-05-24T20:27:02.388Z,20.39
2023-05-24T20:29:30.611Z,20.35
2023-05-24T20:31:57.887Z,20.32
2023-05-24T20:34:25.264Z,20.28
2023-05-24T20:36:52.752Z,20.24
2023-05-24T20:39:19.946Z,20.21
2023-05-24T20:41:47.454Z,20.20
2023-05-24T20:44:14.857Z,20.21
2023-05-24T20:46:42.663Z,20.21
2023-05-24T20:49:09.857Z,20.21
2023-05-24T20:51:37.092Z,20.21
2023-05-24T20:54:04.786Z,20.22
2023-05-24T20:56:33.110Z,20.22
2023-05-24T20:59:02.212Z,20.21
2023-05-24T21:01:29.767Z,20.21
2023-05-24T21:03:57.082Z,20.18
2023-05-24T21:06:25.733Z,20.14
2023-05-24T21:08:52.884Z,20.11
2023-05-24T21:11:20.159Z,20.10
2023-05-24T21:13:47.444Z,20.11
2023-05-24T21:16:15.008Z,20.13
2023-05-24T21:18:42.331Z,20.15
2023-05-24T21:21:11.495Z,20.16
2023-05-24T21:23:38.992Z,20.17
2023-05-24T21:26:06.323Z,20.16
2023-05-24T21:28:33.818Z,20.16
2023-05-24T21:31:01.085Z,20.14
2023-05-24T21:33:28.612Z,20.14
2023-05-24T21:35:56.152Z,20.16
2023-05-24T21:38:24.374Z,20.16
2023-05-24T21:40:51.801Z,20.17
2023-05-24T21:43:19.378Z,20.17
2023-05-24T21:45:47.036Z,20.14
2023-05-24T21:48:14.177Z,20.13
2023-05-24T21:50:41.729Z,20.12
2023-05-24T21:53:09.254Z,20.09
2023-05-24T21:55:36.983Z,20.07
2023-05-24T21:58:04.176Z,20.04
2023-05-24T22:00:31.965Z,20.03
2023-05-24T22:02:59.188Z,20.03
2023-05-24T22:05:27.977Z,20.03
2023-05-24T22:07:55.738Z,20.03
2023-05-24T22:10:22.993Z,20.04
2023-05-24T22:12:50.642Z,20.05
2023-05-24T22:15:17.846Z,20.04
2023-05-24T22:17:45.394Z,20.02
2023-05-24T22:20:13.374Z,20.02
2023-05-24T22:22:48.825Z,19.98
2023-05-24T22:25:20.761Z,19.98
2023-05-24T22:27:51.340Z,19.96
2023-05-24T22:30:19.613Z,19.96
2023-05-24T22:32:47.060Z,19.94
2023-05-24T22:35:14.561Z,19.91
2023-05-24T22:37:42.311Z,19.93
2023-05-24T22:40:09.742Z,19.91
2023-05-24T22:42:37.719Z,19.89
2023-05-24T22:45:05.517Z,19.89
2023-05-24T22:47:33.486Z,19.86
2023-05-24T22:50:02.211Z,19.84
2023-05-24T22:52:30.462Z,19.82
2023-05-24T22:54:57.786Z,19.79
2023-05-24T22:57:24.995Z,19.79
2023-05-24T22:59:52.192Z,19.76
2023-05-24T23:02:19.540Z,19.75
2023-05-24T23:04:47.561Z,19.72
2023-05-24T23:07:15.572Z,19.71
2023-05-24T23:09:43.225Z,19.69
2023-05-24T23:12:11.097Z,19.67
2023-05-24T23:14:39.502Z,19.66
2023-05-24T23:17:13.459Z,19.65
2023-05-24T23:19:45.199Z,19.62
2023-05-24T23:22:14.028Z,19.61
2023-05-24T23:24:42.689Z,19.62
2023-05-24T23:27:10.211Z,19.64
2023-05-24T23:29:40.641Z,19.63
2023-05-24T23:32:08.294Z,19.62
2023-05-24T23:34:36.330Z,19.61
2023-05-24T23:37:04.474Z,19.60
2023-05-24T23:39:31.942Z,19.60
2023-05-24T23:41:59.245Z,19.89
2023-05-24T23:44:26.586Z,20.00
2023-05-24T23:46:53.864Z,20.18
2023-05-24T23:49:22.476Z,19.72
2023-05-24T23:51:50.152Z,19.69
2023-05-24T23:54:19.273Z,19.61
2023-05-24T23:56:46.921Z,19.61
2023-05-24T23:59:16.001Z,19.70
